sensor_id;sensor_type;location;lat;lon;timestamp;P1;durP1;ratioP1;P2;durP2;ratioP2
76752;SDS011;65687;51.308;16.916;2024-02-26T00:03:25;12.80;;;7.40;;
76752;SDS011;65687;51.308;16.916;2024-02-26T00:08:27;17.50;;;9.10;;
76752;SDS011;65687;51.308;16.916;2024-02-26T00:13:28;15.20;;;8.10;;
76752;SDS011;65687;51.308;16.916;2024-02-26T00:18:30;13.30;;;7.90;;
76752;SDS011;65687;51.308;16.916;2024-02-26T00:23:32;17.50;;;9.30;;
76752;SDS011;65687;51.308;16.916;2024-02-26T00:28:33;15.20;;;8.90;;
76752;SDS011;65687;51.308;16.916;2024-02-26T00:33:35;14.30;;;7.30;;
76752;SDS011;65687;51.308;16.916;2024-02-26T00:38:37;15.50;;;7.50;;
76752;SDS011;65687;51.308;16.916;2024-02-26T00:43:38;12.30;;;7.20;;
76752;SDS011;65687;51.308;16.916;2024-02-26T00:48:43;16.30;;;7.40;;
76752;SDS011;65687;51.308;16.916;2024-02-26T00:53:45;8.20;;;5.80;;
76752;SDS011;65687;51.308;16.916;2024-02-26T00:58:46;10.70;;;6.00;;
76752;SDS011;65687;51.308;16.916;2024-02-26T01:03:48;14.30;;;5.90;;
76752;SDS011;65687;51.308;16.916;2024-02-26T01:08:50;12.30;;;6.40;;
76752;SDS011;65687;51.308;16.916;2024-02-26T01:13:51;7.50;;;5.10;;
76752;SDS011;65687;51.308;16.916;2024-02-26T01:18:57;10.10;;;5.40;;
76752;SDS011;65687;51.308;16.916;2024-02-26T01:23:59;10.30;;;5.60;;
76752;SDS011;65687;51.308;16.916;2024-02-26T01:29:01;11.50;;;6.30;;
76752;SDS011;65687;51.308;16.916;2024-02-26T01:34:02;11.40;;;6.10;;
76752;SDS011;65687;51.308;16.916;2024-02-26T01:39:04;8.80;;;4.80;;
76752;SDS011;65687;51.308;16.916;2024-02-26T01:44:06;7.80;;;4.40;;
76752;SDS011;65687;51.308;16.916;2024-02-26T01:49:08;12.30;;;5.10;;
76752;SDS011;65687;51.308;16.916;2024-02-26T01:54:14;8.30;;;4.80;;
76752;SDS011;65687;51.308;16.916;2024-02-26T01:59:16;7.30;;;4.20;;
76752;SDS011;65687;51.308;16.916;2024-02-26T02:04:18;8.80;;;4.30;;
76752;SDS011;65687;51.308;16.916;2024-02-26T02:09:20;10.00;;;5.40;;
76752;SDS011;65687;51.308;16.916;2024-02-26T02:14:24;8.70;;;4.00;;
76752;SDS011;65687;51.308;16.916;2024-02-26T02:24:28;8.90;;;5.00;;
76752;SDS011;65687;51.308;16.916;2024-02-26T02:29:29;8.30;;;4.20;;
76752;SDS011;65687;51.308;16.916;2024-02-26T02:34:32;11.30;;;5.30;;
76752;SDS011;65687;51.308;16.916;2024-02-26T02:39:35;8.10;;;4.70;;
76752;SDS011;65687;51.308;16.916;2024-02-26T02:44:36;8.60;;;4.90;;
76752;SDS011;65687;51.308;16.916;2024-02-26T02:49:38;7.80;;;4.90;;
76752;SDS011;65687;51.308;16.916;2024-02-26T02:54:40;6.90;;;4.40;;
76752;SDS011;65687;51.308;16.916;2024-02-26T02:59:43;9.70;;;5.00;;
76752;SDS011;65687;51.308;16.916;2024-02-26T03:04:45;7.00;;;5.00;;
76752;SDS011;65687;51.308;16.916;2024-02-26T03:09:46;7.30;;;4.70;;
76752;SDS011;65687;51.308;16.916;2024-02-26T03:14:48;9.70;;;5.60;;
76752;SDS011;65687;51.308;16.916;2024-02-26T03:19:49;12.20;;;5.70;;
76752;SDS011;65687;51.308;16.916;2024-02-26T03:24:54;9.30;;;5.00;;
76752;SDS011;65687;51.308;16.916;2024-02-26T03:29:56;12.90;;;6.20;;
76752;SDS011;65687;51.308;16.916;2024-02-26T03:34:58;10.80;;;6.00;;
76752;SDS011;65687;51.308;16.916;2024-02-26T03:39:59;13.60;;;7.30;;
76752;SDS011;65687;51.308;16.916;2024-02-26T03:45:02;10.00;;;6.50;;
76752;SDS011;65687;51.308;16.916;2024-02-26T03:50:04;10.50;;;5.80;;
76752;SDS011;65687;51.308;16.916;2024-02-26T03:55:06;13.10;;;7.10;;
76752;SDS011;65687;51.308;16.916;2024-02-26T04:00:09;13.70;;;7.30;;
76752;SDS011;65687;51.308;16.916;2024-02-26T04:05:11;15.50;;;8.40;;
76752;SDS011;65687;51.308;16.916;2024-02-26T04:10:14;17.10;;;8.40;;
76752;SDS011;65687;51.308;16.916;2024-02-26T04:15:16;17.20;;;9.00;;
76752;SDS011;65687;51.308;16.916;2024-02-26T04:20:18;15.90;;;8.40;;
76752;SDS011;65687;51.308;16.916;2024-02-26T04:25:19;14.40;;;8.20;;
76752;SDS011;65687;51.308;16.916;2024-02-26T04:30:21;16.60;;;8.60;;
76752;SDS011;65687;51.308;16.916;2024-02-26T04:35:23;17.60;;;9.20;;
76752;SDS011;65687;51.308;16.916;2024-02-26T04:40:24;17.50;;;9.40;;
76752;SDS011;65687;51.308;16.916;2024-02-26T04:45:26;17.20;;;8.80;;
76752;SDS011;65687;51.308;16.916;2024-02-26T04:50:27;15.00;;;8.30;;
76752;SDS011;65687;51.308;16.916;2024-02-26T04:55:29;20.10;;;10.00;;
76752;SDS011;65687;51.308;16.916;2024-02-26T05:00:31;20.10;;;10.20;;
76752;SDS011;65687;51.308;16.916;2024-02-26T05:05:32;15.70;;;8.90;;
76752;SDS011;65687;51.308;16.916;2024-02-26T05:10:34;18.80;;;9.60;;
76752;SDS011;65687;51.308;16.916;2024-02-26T05:15:40;16.80;;;9.60;;
76752;SDS011;65687;51.308;16.916;2024-02-26T05:20:42;14.10;;;8.90;;
76752;SDS011;65687;51.308;16.916;2024-02-26T05:25:43;13.80;;;6.50;;
76752;SDS011;65687;51.308;16.916;2024-02-26T05:30:48;19.50;;;10.00;;
76752;SDS011;65687;51.308;16.916;2024-02-26T05:35:50;18.90;;;10.00;;
76752;SDS011;65687;51.308;16.916;2024-02-26T05:40:51;20.90;;;11.40;;
76752;SDS011;65687;51.308;16.916;2024-02-26T05:45:53;18.60;;;9.00;;
76752;SDS011;65687;51.308;16.916;2024-02-26T05:50:55;24.10;;;11.30;;
76752;SDS011;65687;51.308;16.916;2024-02-26T05:55:57;21.50;;;11.30;;
76752;SDS011;65687;51.308;16.916;2024-02-26T06:00:58;21.20;;;11.40;;
76752;SDS011;65687;51.308;16.916;2024-02-26T06:06:01;19.80;;;11.30;;
76752;SDS011;65687;51.308;16.916;2024-02-26T06:11:06;21.50;;;11.20;;
76752;SDS011;65687;51.308;16.916;2024-02-26T06:16:08;19.60;;;12.00;;
76752;SDS011;65687;51.308;16.916;2024-02-26T06:21:10;20.60;;;10.40;;
76752;SDS011;65687;51.308;16.916;2024-02-26T06:26:12;21.50;;;11.80;;
76752;SDS011;65687;51.308;16.916;2024-02-26T06:31:13;22.30;;;12.20;;
76752;SDS011;65687;51.308;16.916;2024-02-26T06:36:15;20.60;;;10.70;;
76752;SDS011;65687;51.308;16.916;2024-02-26T06:41:17;21.40;;;11.40;;
76752;SDS011;65687;51.308;16.916;2024-02-26T06:46:19;21.80;;;11.00;;
76752;SDS011;65687;51.308;16.916;2024-02-26T06:51:20;24.40;;;12.80;;
76752;SDS011;65687;51.308;16.916;2024-02-26T06:56:22;20.00;;;11.10;;
76752;SDS011;65687;51.308;16.916;2024-02-26T07:01:24;20.90;;;11.60;;
76752;SDS011;65687;51.308;16.916;2024-02-26T07:06:26;20.60;;;12.20;;
76752;SDS011;65687;51.308;16.916;2024-02-26T07:11:28;21.30;;;12.10;;
76752;SDS011;65687;51.308;16.916;2024-02-26T07:16:30;20.10;;;12.50;;
76752;SDS011;65687;51.308;16.916;2024-02-26T07:21:31;18.30;;;10.80;;
76752;SDS011;65687;51.308;16.916;2024-02-26T07:26:33;18.50;;;10.90;;
76752;SDS011;65687;51.308;16.916;2024-02-26T07:31:35;21.00;;;11.20;;
76752;SDS011;65687;51.308;16.916;2024-02-26T07:36:37;17.10;;;10.10;;
76752;SDS011;65687;51.308;16.916;2024-02-26T07:41:38;18.50;;;10.50;;
76752;SDS011;65687;51.308;16.916;2024-02-26T07:46:40;18.20;;;10.40;;
76752;SDS011;65687;51.308;16.916;2024-02-26T07:51:42;15.90;;;10.20;;
76752;SDS011;65687;51.308;16.916;2024-02-26T07:56:43;18.00;;;10.50;;
76752;SDS011;65687;51.308;16.916;2024-02-26T08:01:49;17.90;;;11.20;;
76752;SDS011;65687;51.308;16.916;2024-02-26T08:06:53;18.50;;;10.90;;
76752;SDS011;65687;51.308;16.916;2024-02-26T08:11:54;20.30;;;11.20;;
76752;SDS011;65687;51.308;16.916;2024-02-26T08:16:56;17.60;;;11.10;;
76752;SDS011;65687;51.308;16.916;2024-02-26T08:21:58;13.10;;;7.60;;
76752;SDS011;65687;51.308;16.916;2024-02-26T08:26:59;17.90;;;10.00;;
76752;SDS011;65687;51.308;16.916;2024-02-26T08:32:01;17.10;;;9.40;;
76752;SDS011;65687;51.308;16.916;2024-02-26T08:37:03;14.30;;;8.20;;
76752;SDS011;65687;51.308;16.916;2024-02-26T08:42:05;14.50;;;7.60;;
76752;SDS011;65687;51.308;16.916;2024-02-26T08:47:07;16.00;;;8.80;;
76752;SDS011;65687;51.308;16.916;2024-02-26T08:52:09;15.70;;;9.10;;
76752;SDS011;65687;51.308;16.916;2024-02-26T08:57:10;17.30;;;10.40;;
76752;SDS011;65687;51.308;16.916;2024-02-26T09:02:12;17.90;;;12.30;;
76752;SDS011;65687;51.308;16.916;2024-02-26T09:07:14;21.10;;;12.30;;
76752;SDS011;65687;51.308;16.916;2024-02-26T09:12:16;14.00;;;7.40;;
76752;SDS011;65687;51.308;16.916;2024-02-26T09:17:17;20.70;;;11.70;;
76752;SDS011;65687;51.308;16.916;2024-02-26T09:22:19;29.20;;;16.90;;
76752;SDS011;65687;51.308;16.916;2024-02-26T09:27:21;15.70;;;8.60;;
76752;SDS011;65687;51.308;16.916;2024-02-26T09:37:26;10.60;;;6.20;;
76752;SDS011;65687;51.308;16.916;2024-02-26T09:42:27;14.90;;;9.20;;
76752;SDS011;65687;51.308;16.916;2024-02-26T09:47:31;10.80;;;6.80;;
76752;SDS011;65687;51.308;16.916;2024-02-26T09:57:37;9.40;;;5.70;;
76752;SDS011;65687;51.308;16.916;2024-02-26T10:02:39;7.40;;;5.20;;
76752;SDS011;65687;51.308;16.916;2024-02-26T10:07:42;8.90;;;4.60;;
76752;SDS011;65687;51.308;16.916;2024-02-26T10:12:45;7.00;;;4.30;;
76752;SDS011;65687;51.308;16.916;2024-02-26T10:17:47;5.20;;;3.80;;
76752;SDS011;65687;51.308;16.916;2024-02-26T10:22:48;7.20;;;4.70;;
76752;SDS011;65687;51.308;16.916;2024-02-26T10:27:50;7.90;;;4.80;;
76752;SDS011;65687;51.308;16.916;2024-02-26T10:32:53;6.30;;;3.70;;
76752;SDS011;65687;51.308;16.916;2024-02-26T10:37:55;6.00;;;4.20;;
76752;SDS011;65687;51.308;16.916;2024-02-26T10:42:57;8.10;;;4.40;;
76752;SDS011;65687;51.308;16.916;2024-02-26T10:53:01;8.00;;;6.00;;
76752;SDS011;65687;51.308;16.916;2024-02-26T10:58:06;6.30;;;4.20;;
76752;SDS011;65687;51.308;16.916;2024-02-26T11:03:10;7.60;;;3.70;;
76752;SDS011;65687;51.308;16.916;2024-02-26T11:08:13;6.20;;;3.50;;
76752;SDS011;65687;51.308;16.916;2024-02-26T11:13:16;6.70;;;3.70;;
76752;SDS011;65687;51.308;16.916;2024-02-26T11:18:19;5.30;;;4.00;;
76752;SDS011;65687;51.308;16.916;2024-02-26T11:23:24;4.60;;;3.00;;
76752;SDS011;65687;51.308;16.916;2024-02-26T11:28:26;7.30;;;4.90;;
76752;SDS011;65687;51.308;16.916;2024-02-26T11:33:30;8.00;;;4.30;;
76752;SDS011;65687;51.308;16.916;2024-02-26T11:38:31;10.60;;;6.80;;
76752;SDS011;65687;51.308;16.916;2024-02-26T11:49:02;4.90;;;3.00;;
76752;SDS011;65687;51.308;16.916;2024-02-26T11:54:05;7.00;;;4.10;;
76752;SDS011;65687;51.308;16.916;2024-02-26T11:59:10;7.30;;;4.40;;
76752;SDS011;65687;51.308;16.916;2024-02-26T12:04:13;8.90;;;4.20;;
76752;SDS011;65687;51.308;16.916;2024-02-26T12:14:52;7.10;;;3.80;;
76752;SDS011;65687;51.308;16.916;2024-02-26T12:19:55;6.80;;;4.60;;
76752;SDS011;65687;51.308;16.916;2024-02-26T12:25:10;5.30;;;3.60;;
76752;SDS011;65687;51.308;16.916;2024-02-26T12:30:12;8.80;;;4.40;;
76752;SDS011;65687;51.308;16.916;2024-02-26T12:35:14;4.20;;;2.80;;
76752;SDS011;65687;51.308;16.916;2024-02-26T12:40:17;4.30;;;2.80;;
76752;SDS011;65687;51.308;16.916;2024-02-26T12:45:19;5.20;;;3.30;;
76752;SDS011;65687;51.308;16.916;2024-02-26T12:50:21;3.80;;;3.00;;
76752;SDS011;65687;51.308;16.916;2024-02-26T12:55:23;6.70;;;3.10;;
76752;SDS011;65687;51.308;16.916;2024-02-26T13:00:26;5.70;;;3.00;;
76752;SDS011;65687;51.308;16.916;2024-02-26T13:05:29;4.20;;;2.90;;
76752;SDS011;65687;51.308;16.916;2024-02-26T13:10:32;5.80;;;3.30;;
76752;SDS011;65687;51.308;16.916;2024-02-26T13:15:35;4.10;;;2.70;;
76752;SDS011;65687;51.308;16.916;2024-02-26T13:20:37;4.90;;;2.50;;
76752;SDS011;65687;51.308;16.916;2024-02-26T13:25:41;4.70;;;2.60;;
76752;SDS011;65687;51.308;16.916;2024-02-26T13:31:01;4.80;;;2.40;;
76752;SDS011;65687;51.308;16.916;2024-02-26T13:36:04;3.60;;;2.40;;
76752;SDS011;65687;51.308;16.916;2024-02-26T13:41:06;4.20;;;2.30;;
76752;SDS011;65687;51.308;16.916;2024-02-26T13:46:08;6.20;;;3.30;;
76752;SDS011;65687;51.308;16.916;2024-02-26T13:51:09;3.90;;;2.50;;
76752;SDS011;65687;51.308;16.916;2024-02-26T13:56:11;5.90;;;3.00;;
76752;SDS011;65687;51.308;16.916;2024-02-26T14:01:13;3.50;;;2.70;;
76752;SDS011;65687;51.308;16.916;2024-02-26T14:06:15;5.20;;;2.70;;
76752;SDS011;65687;51.308;16.916;2024-02-26T14:11:16;3.90;;;2.60;;
76752;SDS011;65687;51.308;16.916;2024-02-26T14:16:18;4.70;;;3.20;;
76752;SDS011;65687;51.308;16.916;2024-02-26T14:21:21;4.20;;;3.10;;
76752;SDS011;65687;51.308;16.916;2024-02-26T14:26:23;5.10;;;3.50;;
76752;SDS011;65687;51.308;16.916;2024-02-26T14:31:25;6.60;;;3.40;;
76752;SDS011;65687;51.308;16.916;2024-02-26T14:36:26;6.70;;;3.60;;
76752;SDS011;65687;51.308;16.916;2024-02-26T14:41:28;5.60;;;3.50;;
76752;SDS011;65687;51.308;16.916;2024-02-26T14:46:30;6.30;;;3.10;;
76752;SDS011;65687;51.308;16.916;2024-02-26T14:51:32;3.90;;;2.70;;
76752;SDS011;65687;51.308;16.916;2024-02-26T14:56:33;5.60;;;3.10;;
76752;SDS011;65687;51.308;16.916;2024-02-26T15:01:35;4.40;;;2.90;;
76752;SDS011;65687;51.308;16.916;2024-02-26T15:06:38;7.10;;;3.60;;
76752;SDS011;65687;51.308;16.916;2024-02-26T15:11:40;4.90;;;3.20;;
76752;SDS011;65687;51.308;16.916;2024-02-26T15:16:41;4.10;;;2.90;;
76752;SDS011;65687;51.308;16.916;2024-02-26T15:21:44;3.90;;;2.90;;
76752;SDS011;65687;51.308;16.916;2024-02-26T15:26:46;4.30;;;2.70;;
76752;SDS011;65687;51.308;16.916;2024-02-26T15:31:48;4.60;;;2.60;;
76752;SDS011;65687;51.308;16.916;2024-02-26T15:36:50;5.30;;;2.60;;
76752;SDS011;65687;51.308;16.916;2024-02-26T15:41:52;4.30;;;2.70;;
76752;SDS011;65687;51.308;16.916;2024-02-26T15:46:53;4.40;;;2.70;;
76752;SDS011;65687;51.308;16.916;2024-02-26T15:51:55;5.40;;;2.50;;
76752;SDS011;65687;51.308;16.916;2024-02-26T15:56:57;3.70;;;2.50;;
76752;SDS011;65687;51.308;16.916;2024-02-26T16:01:59;4.20;;;2.60;;
76752;SDS011;65687;51.308;16.916;2024-02-26T16:07:04;4.60;;;2.80;;
76752;SDS011;65687;51.308;16.916;2024-02-26T16:12:14;3.60;;;2.60;;
76752;SDS011;65687;51.308;16.916;2024-02-26T16:17:29;6.40;;;3.00;;
76752;SDS011;65687;51.308;16.916;2024-02-26T16:22:33;4.30;;;3.50;;
76752;SDS011;65687;51.308;16.916;2024-02-26T16:27:38;5.40;;;3.40;;
76752;SDS011;65687;51.308;16.916;2024-02-26T16:32:41;7.10;;;4.70;;
76752;SDS011;65687;51.308;16.916;2024-02-26T16:37:44;9.00;;;6.50;;
76752;SDS011;65687;51.308;16.916;2024-02-26T16:42:46;13.70;;;8.70;;
76752;SDS011;65687;51.308;16.916;2024-02-26T16:47:48;16.40;;;10.90;;
76752;SDS011;65687;51.308;16.916;2024-02-26T16:52:49;15.70;;;8.90;;
76752;SDS011;65687;51.308;16.916;2024-02-26T16:57:51;11.60;;;7.10;;
76752;SDS011;65687;51.308;16.916;2024-02-26T17:02:53;15.50;;;8.80;;
76752;SDS011;65687;51.308;16.916;2024-02-26T17:07:58;12.00;;;7.80;;
76752;SDS011;65687;51.308;16.916;2024-02-26T17:12:59;10.00;;;7.10;;
76752;SDS011;65687;51.308;16.916;2024-02-26T17:18:01;8.90;;;5.00;;
76752;SDS011;65687;51.308;16.916;2024-02-26T17:23:03;11.80;;;5.40;;
76752;SDS011;65687;51.308;16.916;2024-02-26T17:28:05;7.70;;;5.60;;
76752;SDS011;65687;51.308;16.916;2024-02-26T17:33:07;7.00;;;5.40;;
76752;SDS011;65687;51.308;16.916;2024-02-26T17:38:09;8.30;;;4.40;;
76752;SDS011;65687;51.308;16.916;2024-02-26T17:43:16;7.40;;;4.90;;
76752;SDS011;65687;51.308;16.916;2024-02-26T17:48:18;9.60;;;6.50;;
76752;SDS011;65687;51.308;16.916;2024-02-26T17:53:20;16.90;;;10.00;;
76752;SDS011;65687;51.308;16.916;2024-02-26T17:58:25;18.00;;;11.00;;
76752;SDS011;65687;51.308;16.916;2024-02-26T18:03:27;18.60;;;11.80;;
76752;SDS011;65687;51.308;16.916;2024-02-26T18:08:29;16.70;;;9.90;;
76752;SDS011;65687;51.308;16.916;2024-02-26T18:13:31;13.60;;;8.20;;
76752;SDS011;65687;51.308;16.916;2024-02-26T18:18:33;9.90;;;6.80;;
76752;SDS011;65687;51.308;16.916;2024-02-26T18:23:35;14.90;;;5.60;;
76752;SDS011;65687;51.308;16.916;2024-02-26T18:28:36;9.90;;;5.10;;
76752;SDS011;65687;51.308;16.916;2024-02-26T18:33:38;8.50;;;4.30;;
76752;SDS011;65687;51.308;16.916;2024-02-26T18:38:40;8.00;;;4.60;;
76752;SDS011;65687;51.308;16.916;2024-02-26T18:43:42;9.30;;;5.80;;
76752;SDS011;65687;51.308;16.916;2024-02-26T18:48:44;12.80;;;6.30;;
76752;SDS011;65687;51.308;16.916;2024-02-26T18:53:46;8.30;;;4.40;;
76752;SDS011;65687;51.308;16.916;2024-02-26T18:58:48;7.50;;;4.10;;
76752;SDS011;65687;51.308;16.916;2024-02-26T19:03:49;6.60;;;4.30;;
76752;SDS011;65687;51.308;16.916;2024-02-26T19:08:51;7.30;;;4.30;;
76752;SDS011;65687;51.308;16.916;2024-02-26T19:13:53;8.10;;;4.50;;
76752;SDS011;65687;51.308;16.916;2024-02-26T19:18:56;8.90;;;4.40;;
76752;SDS011;65687;51.308;16.916;2024-02-26T19:24:00;7.00;;;4.20;;
76752;SDS011;65687;51.308;16.916;2024-02-26T19:29:04;7.50;;;4.30;;
76752;SDS011;65687;51.308;16.916;2024-02-26T19:34:06;9.30;;;4.90;;
76752;SDS011;65687;51.308;16.916;2024-02-26T19:39:08;8.50;;;4.30;;
76752;SDS011;65687;51.308;16.916;2024-02-26T19:44:11;10.00;;;5.20;;
76752;SDS011;65687;51.308;16.916;2024-02-26T19:49:14;9.70;;;5.80;;
76752;SDS011;65687;51.308;16.916;2024-02-26T19:54:16;9.20;;;6.40;;
76752;SDS011;65687;51.308;16.916;2024-02-26T19:59:18;8.10;;;5.40;;
76752;SDS011;65687;51.308;16.916;2024-02-26T20:04:20;8.40;;;5.80;;
76752;SDS011;65687;51.308;16.916;2024-02-26T20:09:25;10.80;;;5.70;;
76752;SDS011;65687;51.308;16.916;2024-02-26T20:14:31;9.10;;;5.20;;
76752;SDS011;65687;51.308;16.916;2024-02-26T20:19:33;10.90;;;6.30;;
76752;SDS011;65687;51.308;16.916;2024-02-26T20:24:34;12.40;;;6.80;;
76752;SDS011;65687;51.308;16.916;2024-02-26T20:29:36;10.20;;;5.70;;
76752;SDS011;65687;51.308;16.916;2024-02-26T20:34:38;8.60;;;5.80;;
76752;SDS011;65687;51.308;16.916;2024-02-26T20:39:41;11.30;;;6.70;;
76752;SDS011;65687;51.308;16.916;2024-02-26T20:44:43;9.70;;;6.30;;
76752;SDS011;65687;51.308;16.916;2024-02-26T20:49:45;12.40;;;6.40;;
76752;SDS011;65687;51.308;16.916;2024-02-26T20:54:48;12.80;;;6.90;;
76752;SDS011;65687;51.308;16.916;2024-02-26T20:59:49;10.90;;;6.80;;
76752;SDS011;65687;51.308;16.916;2024-02-26T21:04:51;11.20;;;5.90;;
76752;SDS011;65687;51.308;16.916;2024-02-26T21:09:53;11.70;;;6.40;;
76752;SDS011;65687;51.308;16.916;2024-02-26T21:14:55;13.40;;;7.00;;
76752;SDS011;65687;51.308;16.916;2024-02-26T21:19:57;13.30;;;6.90;;
76752;SDS011;65687;51.308;16.916;2024-02-26T21:24:59;11.40;;;5.80;;
76752;SDS011;65687;51.308;16.916;2024-02-26T21:30:01;9.60;;;6.40;;
76752;SDS011;65687;51.308;16.916;2024-02-26T21:35:04;11.80;;;6.90;;
76752;SDS011;65687;51.308;16.916;2024-02-26T21:40:07;9.50;;;6.10;;
76752;SDS011;65687;51.308;16.916;2024-02-26T21:45:11;13.60;;;6.90;;
76752;SDS011;65687;51.308;16.916;2024-02-26T21:50:15;12.30;;;7.50;;
76752;SDS011;65687;51.308;16.916;2024-02-26T21:55:16;13.10;;;7.50;;
76752;SDS011;65687;51.308;16.916;2024-02-26T22:00:20;13.20;;;6.70;;
76752;SDS011;65687;51.308;16.916;2024-02-26T22:05:22;12.90;;;8.10;;
76752;SDS011;65687;51.308;16.916;2024-02-26T22:10:24;13.50;;;6.90;;
76752;SDS011;65687;51.308;16.916;2024-02-26T22:15:25;11.80;;;6.50;;
76752;SDS011;65687;51.308;16.916;2024-02-26T22:20:27;13.60;;;6.40;;
76752;SDS011;65687;51.308;16.916;2024-02-26T22:25:29;12.30;;;7.00;;
76752;SDS011;65687;51.308;16.916;2024-02-26T22:30:31;10.50;;;6.20;;
76752;SDS011;65687;51.308;16.916;2024-02-26T22:35:33;15.00;;;8.40;;
76752;SDS011;65687;51.308;16.916;2024-02-26T22:40:35;11.90;;;6.90;;
76752;SDS011;65687;51.308;16.916;2024-02-26T22:50:39;15.90;;;8.40;;
76752;SDS011;65687;51.308;16.916;2024-02-26T22:55:41;10.20;;;6.00;;
76752;SDS011;65687;51.308;16.916;2024-02-26T23:00:45;12.10;;;7.30;;
76752;SDS011;65687;51.308;16.916;2024-02-26T23:05:47;14.30;;;7.60;;
76752;SDS011;65687;51.308;16.916;2024-02-26T23:10:49;12.10;;;6.60;;
76752;SDS011;65687;51.308;16.916;2024-02-26T23:15:51;13.30;;;9.10;;
76752;SDS011;65687;51.308;16.916;2024-02-26T23:20:55;17.20;;;8.00;;
76752;SDS011;65687;51.308;16.916;2024-02-26T23:25:57;13.10;;;7.20;;
76752;SDS011;65687;51.308;16.916;2024-02-26T23:30:58;15.00;;;8.20;;
76752;SDS011;65687;51.308;16.916;2024-02-26T23:36:00;15.90;;;9.10;;
76752;SDS011;65687;51.308;16.916;2024-02-26T23:41:02;16.50;;;9.60;;
76752;SDS011;65687;51.308;16.916;2024-02-26T23:46:04;10.70;;;6.90;;
76752;SDS011;65687;51.308;16.916;2024-02-26T23:51:05;14.40;;;8.40;;
76752;SDS011;65687;51.308;16.916;2024-02-26T23:56:07;15.30;;;8.80;;
